Blessing Sw — 3FIP7 — position and weather

sailwx.info

Track history (hours):
 
Tides and Currents Weather Stations Pressure Air Temp Water Temp Dewpoint Dewpoint Depression Visibility Wind Speed Wind Dir Waves Ship Positions

Blessing Sw

Last reported at 2015-Jul-28 00:12 UTC. Time now 2015-Jul-28 17:47 UTC.
Position N 39°10' W 031°30'.

Length 171 m; draft 9.6 m.

Type: Cargo ship. MMSI: 372085000.

Date/timePositionNaut miles runAvg speedWind from/ knotsBaromVisibWave heightAir tempDewpointWater temp
2015-Jul-28 00:12N 39°10' W 031°30'6 9.5
2015-Jul-27 23:34N 39°11' W 031°22'10 9.9
2015-Jul-27 22:32N 39°11' W 031°09'1010.3
2015-Jul-27 21:33N 39°11' W 030°56'2510.3
2015-Jul-27 19:11N 39°16' W 030°25'610.2
2015-Jul-27 18:33N 39°17' W 030°17'1010.4
2015-Jul-27 17:33N 39°20' W 030°04'1010.1
2015-Jul-27 16:33N 39°22' W 029°51'10 9.7
2015-Jul-27 15:33N 39°22' W 029°39'1010.2
2015-Jul-27 14:33N 39°24' W 029°26'1010.0
2015-Jul-27 13:33N 39°26' W 029°13'1010.2
2015-Jul-27 12:33N 39°28' W 028°60'1010.1
2015-Jul-27 11:33N 39°30' W 028°47'10 9.6
2015-Jul-27 10:33N 39°32' W 028°35'10 9.5
2015-Jul-27 09:33N 39°33' W 028°23'1010.3
2015-Jul-27 08:33N 39°35' W 028°09'1010.0
2015-Jul-27 07:34N 39°35' W 027°56'1010.0
2015-Jul-27 06:33N 39°33' W 027°44'1010.2
2015-Jul-27 05:34N 39°32' W 027°31'2110.3
2015-Jul-27 03:33N 39°28' W 027°04'3410.5
2015-Jul-27 00:19N 39°21' W 026°21'1910.7
2015-Jul-26 22:32N 39°18' W 025°57'1311.2
2015-Jul-26 21:22N 39°16' W 025°40'1010.6
2015-Jul-26 20:24N 39°14' W 025°27'1110.4
2015-Jul-26 19:22N 39°13' W 025°13'910.5
2015-Jul-26 18:29N 39°11' W 025°02'1010.4
2015-Jul-26 17:31N 39°09' W 024°49'1010.3
2015-Jul-26 16:32N 39°08' W 024°36'1010.1
2015-Jul-26 15:32N 39°06' W 024°23'1310.3
2015-Jul-26 14:15N 39°03' W 024°07'710.2
2015-Jul-26 13:33N 39°02' W 023°58'1010.2
2015-Jul-26 12:33N 39°00' W 023°45'1110.5
2015-Jul-26 11:29N 38°59' W 023°30'  
2015-Jul-24 00:30N 36°16' W 010°44'1411.1
2015-Jul-23 23:14N 36°15' W 010°27'811.2
2015-Jul-23 22:31N 36°14' W 010°17'1610.8
2015-Jul-23 21:05N 36°13' W 009°58'610.7
2015-Jul-23 20:33N 36°12' W 009°51'1110.7
2015-Jul-23 19:33N 36°11' W 009°37'1110.7
2015-Jul-23 18:33N 36°10' W 009°24'1110.6
2015-Jul-23 17:33N 36°10' W 009°11'1010.2
2015-Jul-23 16:33N 36°08' W 008°59'10 9.9
2015-Jul-23 15:33N 36°07' W 008°46'1010.0
2015-Jul-23 14:33N 36°07' W 008°34'1010.0
2015-Jul-23 13:33N 36°07' W 008°22'1010.0
2015-Jul-23 12:33N 36°06' W 008°09'1010.0
2015-Jul-23 11:33N 36°04' W 007°57'1110.6
2015-Jul-23 10:33N 36°04' W 007°44'2510.7
2015-Jul-23 08:14N 36°02' W 007°13'2110.7
2015-Jul-23 06:17N 36°00' W 006°48'235 6.0
2015-Jul-21 15:25N 36°10' W 001°58'1011.4
2015-Jul-21 14:32N 36°09' W 001°45'1211.8
2015-Jul-21 13:33N 36°09' W 001°31'1211.6
2015-Jul-21 12:33N 36°08' W 001°16'1311.7
2015-Jul-21 11:28N 36°08' W 001°01'1011.0
2015-Jul-21 10:33N 36°07' W 000°49'1010.3
2015-Jul-21 09:32N 36°06' W 000°36'  
Track history (hours):
 
Tides and Currents Weather Stations Pressure Air Temp Water Temp Dewpoint Dewpoint Depression Visibility Wind Speed Wind Dir Waves Ship Positions

Blessing Sw

Last reported at 2015-Jul-28 00:12 UTC. Time now 2015-Jul-28 17:47 UTC.
Position N 39°10' W 031°30'.

Length 171 m; draft 9.6 m.

Type: Cargo ship. MMSI: 372085000.

Date/timePositionNaut miles runAvg speedWind from/ knotsBaromVisibWave heightAir tempDewpointWater temp
2015-Jul-28 00:12N 39°10' W 031°30'6 9.5
2015-Jul-27 23:34N 39°11' W 031°22'10 9.9
2015-Jul-27 22:32N 39°11' W 031°09'1010.3
2015-Jul-27 21:33N 39°11' W 030°56'2510.3
2015-Jul-27 19:11N 39°16' W 030°25'610.2
2015-Jul-27 18:33N 39°17' W 030°17'1010.4
2015-Jul-27 17:33N 39°20' W 030°04'1010.1
2015-Jul-27 16:33N 39°22' W 029°51'10 9.7
2015-Jul-27 15:33N 39°22' W 029°39'1010.2
2015-Jul-27 14:33N 39°24' W 029°26'1010.0
2015-Jul-27 13:33N 39°26' W 029°13'1010.2
2015-Jul-27 12:33N 39°28' W 028°60'1010.1
2015-Jul-27 11:33N 39°30' W 028°47'10 9.6
2015-Jul-27 10:33N 39°32' W 028°35'10 9.5
2015-Jul-27 09:33N 39°33' W 028°23'1010.3
2015-Jul-27 08:33N 39°35' W 028°09'1010.0
2015-Jul-27 07:34N 39°35' W 027°56'1010.0
2015-Jul-27 06:33N 39°33' W 027°44'1010.2
2015-Jul-27 05:34N 39°32' W 027°31'2110.3
2015-Jul-27 03:33N 39°28' W 027°04'3410.5
2015-Jul-27 00:19N 39°21' W 026°21'1910.7
2015-Jul-26 22:32N 39°18' W 025°57'1311.2
2015-Jul-26 21:22N 39°16' W 025°40'1010.6
2015-Jul-26 20:24N 39°14' W 025°27'1110.4
2015-Jul-26 19:22N 39°13' W 025°13'910.5
2015-Jul-26 18:29N 39°11' W 025°02'1010.4
2015-Jul-26 17:31N 39°09' W 024°49'1010.3
2015-Jul-26 16:32N 39°08' W 024°36'1010.1
2015-Jul-26 15:32N 39°06' W 024°23'1310.3
2015-Jul-26 14:15N 39°03' W 024°07'710.2
2015-Jul-26 13:33N 39°02' W 023°58'1010.2
2015-Jul-26 12:33N 39°00' W 023°45'1110.5
2015-Jul-26 11:29N 38°59' W 023°30'  
2015-Jul-24 00:30N 36°16' W 010°44'1411.1
2015-Jul-23 23:14N 36°15' W 010°27'811.2
2015-Jul-23 22:31N 36°14' W 010°17'1610.8
2015-Jul-23 21:05N 36°13' W 009°58'610.7
2015-Jul-23 20:33N 36°12' W 009°51'1110.7
2015-Jul-23 19:33N 36°11' W 009°37'1110.7
2015-Jul-23 18:33N 36°10' W 009°24'1110.6
2015-Jul-23 17:33N 36°10' W 009°11'1010.2
2015-Jul-23 16:33N 36°08' W 008°59'10 9.9
2015-Jul-23 15:33N 36°07' W 008°46'1010.0
2015-Jul-23 14:33N 36°07' W 008°34'1010.0
2015-Jul-23 13:33N 36°07' W 008°22'1010.0
2015-Jul-23 12:33N 36°06' W 008°09'1010.0
2015-Jul-23 11:33N 36°04' W 007°57'1110.6
2015-Jul-23 10:33N 36°04' W 007°44'2510.7
2015-Jul-23 08:14N 36°02' W 007°13'2110.7
2015-Jul-23 06:17N 36°00' W 006°48'235 6.0
2015-Jul-21 15:25N 36°10' W 001°58'1011.4
2015-Jul-21 14:32N 36°09' W 001°45'1211.8
2015-Jul-21 13:33N 36°09' W 001°31'1211.6
2015-Jul-21 12:33N 36°08' W 001°16'1311.7
2015-Jul-21 11:28N 36°08' W 001°01'1011.0
2015-Jul-21 10:33N 36°07' W 000°49'1010.3
2015-Jul-21 09:32N 36°06' W 000°36'  

Dump ship's entire track history